Terminal Aerodrome Forecast
Issued by NWS Melbourne, FL

Current Version | Previous Version | Text Only | Print | Product List | Glossary On
Versions: 1 2 3 4 5 6 7 8 9 10 11 12 13 14 15 16 17
000
FTUS42 KMLB 270542
TAFDAB
TAF
KDAB 270542Z 2706/2806 VRB03KT P6SM FEW030 FEW250
     FM271700 06009KT P6SM VCTS SCT035CB BKN080
     FM272100 10008KT P6SM FEW080 SCT250
     FM280000 VRB03KT P6SM FEW250=

USA.gov is the U.S. government's official web portal to all federal, state and local government web resources and services.